Capitol Logistics 458


KTPA
Tampa International Airport
Tampa, Florida, US
KRFD
Chicago/Rockford International Airport
Rockford, Illinois, US

Activity Log

Date Flight Route Aircraft Duration
10/16/2019 CPX458 ENDED8 LACEN BRUTS Q118 ATL BWG SPI BDF QUOTE B738 2h 43m
09/12/2019 CPX458 ENDED8 LACEN BRUTS Q118 ATL BWG SPI BDF QUOTE B738 2h 31m
07/18/2019 CPX458 ENDED8 LACEN BRUTS Q118 ATL BWG SPI BDF QUOTE B738 2h 35m
06/28/2019 CPX458 ENDED8 LACEN BRUTS Q118 ATL J45 BNA J73 PXV BDF QUOTE B738 2h 20m

Route Details

Aircraft Information
Primary: Boeing 737-800BCF
Backup: Not Available
Route Data
Distance: 913nm
Sched. Duration: 2h 16m
Avg. Duration: 2h 32m (+17m)
Times Flown: 4
Recm'd Route: ENDED8 LACEN BRUTS Q118 ATL BWG SPI BDF QUOTE
Planned Altitude: 36,000ft
Origin Wx: KTPA 271753Z VRB06KT 10SM FEW034 32/22 A3005 RMK AO2 SLP174 T03220217 10322 20261 58016
Dest. Wx: KRFD 271754Z 24005KT 10SM SCT090 BKN130 04/M04 A3028 RMK AO2 SLP262 T00391039 10039 20006 57025
Notes:

Financial History
Total Freight: 111,937lbs
Average Load: 27,984lbs/flt
Fuel Used: 53,187lbs
Avg. Fuel Used: 13,297lbs/flt
Fuel Expense: $53,719
Avg. Fuel Expense: $13,430
Avg. Fuel Cost: $1.01/lbs
Total Gross Income: $144,399
Pilot Pay: $836
Total Expenses: $15,803
Total Revenue: $72,628
Average Revenue: $36,099.68